Alderton, Washington
Current Conditions -  °F | °C
As of 10:58 PM on Thursday 30 Oct 2014 (Local Time) from KTCM Reporting Station
Light Rain Light Rain  
Wind Chill: 53°   Ceiling: 3300
Heat Index: 53°   Visibility: 10mi
Dew Point: 53°   Wind: 5mph
Humidity: 99%   Direction: 190°S
Pressure: 29.79"   Gusts: NA
Location:  47.1905°N, 122.328°W
Report Text: KTCM 310558Z AUTO 19004KT 10SM -RA OVC033 12/12 A2979 RMK AO2 RAB0510 SLP092 P0004 60023 T01190117 10135 20118 50002
Loading
Personal Weather Stations






























Interactive Weather Map
Tropical Storm Tracking
New forecast layout! Learn more

10-Day Weather Forecast

Advertisements
Track Severe Weather on mobile